createdAt,value
2019-01-27T00:01:34.039Z,4.89
2019-01-27T00:04:02.440Z,4.89
2019-01-27T00:06:30.996Z,5.01
2019-01-27T00:08:59.320Z,5.08
2019-01-27T00:11:27.725Z,5.00
2019-01-27T00:13:56.041Z,4.94
2019-01-27T00:16:24.674Z,4.87
2019-01-27T00:18:53.456Z,4.70
2019-01-27T00:21:21.860Z,4.75
2019-01-27T00:23:50.308Z,4.71
2019-01-27T00:26:19.021Z,4.45
2019-01-27T00:28:47.814Z,4.44
2019-01-27T00:31:16.594Z,4.65
2019-01-27T00:33:45.285Z,4.50
2019-01-27T00:36:13.630Z,4.36
2019-01-27T00:38:42.019Z,4.63
2019-01-27T00:41:10.744Z,4.68
2019-01-27T00:43:39.107Z,4.73
2019-01-27T00:46:07.779Z,4.59
2019-01-27T00:48:36.157Z,4.68
2019-01-27T00:51:05.032Z,4.64
2019-01-27T00:53:33.344Z,4.77
2019-01-27T00:56:01.687Z,4.69
2019-01-27T00:58:30.448Z,4.74
2019-01-27T01:00:59.160Z,4.43
2019-01-27T01:03:27.545Z,4.07
2019-01-27T01:05:55.946Z,4.24
2019-01-27T01:08:24.425Z,4.00
2019-01-27T01:10:52.830Z,3.92
2019-01-27T01:13:21.541Z,3.79
2019-01-27T01:15:49.942Z,4.07
2019-01-27T01:18:18.326Z,3.99
2019-01-27T01:20:46.723Z,3.97
2019-01-27T01:23:15.109Z,3.97
2019-01-27T01:25:43.828Z,4.27
2019-01-27T01:28:12.144Z,4.57
2019-01-27T01:30:40.840Z,4.61
2019-01-27T01:33:09.239Z,4.51
2019-01-27T01:35:37.634Z,4.37
2019-01-27T01:38:06.030Z,4.38
2019-01-27T01:40:35.405Z,4.21
2019-01-27T01:43:03.816Z,4.15
2019-01-27T01:45:33.669Z,4.30
2019-01-27T01:48:02.469Z,3.98
2019-01-27T01:50:31.268Z,4.03
2019-01-27T01:52:59.762Z,3.85
2019-01-27T01:55:28.153Z,4.31
2019-01-27T01:57:56.549Z,4.45
2019-01-27T02:00:27.350Z,4.48
2019-01-27T02:02:55.754Z,4.50
2019-01-27T02:05:24.635Z,4.68
2019-01-27T02:07:53.147Z,4.67
2019-01-27T02:10:23.043Z,4.66
2019-01-27T02:12:52.917Z,4.66
2019-01-27T02:15:30.071Z,4.60
2019-01-27T02:17:58.537Z,4.70
2019-01-27T02:20:27.121Z,4.65
2019-01-27T02:22:55.596Z,4.72
2019-01-27T02:25:23.957Z,4.47
2019-01-27T02:27:52.370Z,4.08
2019-01-27T02:30:21.463Z,3.99
2019-01-27T02:32:50.403Z,3.81
2019-01-27T02:35:18.786Z,3.79
2019-01-27T02:37:47.134Z,4.86
2019-01-27T02:40:15.602Z,5.20
2019-01-27T02:42:44.369Z,4.62
2019-01-27T02:45:16.939Z,4.20
2019-01-27T02:47:45.665Z,4.01
2019-01-27T02:50:14.222Z,3.78
2019-01-27T02:52:42.631Z,3.83
2019-01-27T02:55:11.219Z,3.95
2019-01-27T02:57:39.850Z,3.78
2019-01-27T03:00:17.404Z,3.93
2019-01-27T03:02:45.810Z,3.56
2019-01-27T03:05:32.791Z,3.46
2019-01-27T03:08:01.177Z,3.57
2019-01-27T03:10:29.674Z,3.49
2019-01-27T03:12:58.084Z,3.59
2019-01-27T03:15:26.421Z,3.63
2019-01-27T03:17:55.107Z,4.35
2019-01-27T03:20:23.501Z,3.74
2019-01-27T03:22:51.834Z,4.41
2019-01-27T03:25:20.221Z,3.30
2019-01-27T03:27:48.553Z,3.27
2019-01-27T03:30:23.967Z,3.46
2019-01-27T03:32:52.437Z,3.46
2019-01-27T03:35:20.841Z,3.59
2019-01-27T03:37:49.238Z,3.53
2019-01-27T03:40:19.594Z,3.62
2019-01-27T03:42:48.033Z,3.54
2019-01-27T03:45:18.412Z,3.54
2019-01-27T03:47:47.263Z,3.57
2019-01-27T03:50:20.389Z,3.39
2019-01-27T03:52:48.778Z,2.80
2019-01-27T03:55:23.102Z,2.74
2019-01-27T03:57:51.433Z,3.23
2019-01-27T04:00:24.405Z,3.10
2019-01-27T04:02:53.025Z,2.98
2019-01-27T04:05:21.491Z,3.00
2019-01-27T04:07:50.368Z,3.18
2019-01-27T04:10:21.957Z,3.08
2019-01-27T04:12:50.343Z,3.03
2019-01-27T04:15:18.991Z,2.63
2019-01-27T04:17:47.441Z,2.80
2019-01-27T04:20:18.161Z,2.97
2019-01-27T04:22:46.541Z,2.77
2019-01-27T04:25:15.817Z,2.63
2019-01-27T04:27:44.205Z,2.75
2019-01-27T04:30:20.025Z,2.87
2019-01-27T04:32:48.410Z,2.52
2019-01-27T04:35:16.808Z,2.63
2019-01-27T04:37:45.125Z,2.63
2019-01-27T04:40:16.662Z,2.83
2019-01-27T04:42:45.047Z,2.88
2019-01-27T04:45:17.426Z,2.90
2019-01-27T04:47:45.809Z,2.90
2019-01-27T04:50:14.921Z,2.98
2019-01-27T04:52:43.393Z,2.85
2019-01-27T04:55:19.133Z,2.96
2019-01-27T04:57:47.521Z,2.72
2019-01-27T05:00:18.856Z,2.70
2019-01-27T05:02:51.921Z,2.41
2019-01-27T05:05:20.256Z,2.72
2019-01-27T05:07:48.733Z,2.78
2019-01-27T05:10:17.140Z,2.87
2019-01-27T05:12:45.519Z,2.81
2019-01-27T05:15:18.336Z,2.84
2019-01-27T05:17:46.715Z,2.86
2019-01-27T05:20:15.123Z,2.77
2019-01-27T05:22:43.435Z,2.82
2019-01-27T05:25:16.899Z,2.85
2019-01-27T05:27:45.403Z,2.80
2019-01-27T05:30:19.501Z,2.78
2019-01-27T05:32:47.988Z,2.81
2019-01-27T05:35:16.903Z,2.92
2019-01-27T05:37:45.378Z,2.91
2019-01-27T05:40:17.026Z,3.01
2019-01-27T05:42:45.456Z,3.00
2019-01-27T05:45:18.678Z,2.86
2019-01-27T05:47:47.083Z,2.76
2019-01-27T05:50:16.978Z,2.88
2019-01-27T05:52:45.411Z,2.87
2019-01-27T05:55:15.975Z,2.69
2019-01-27T05:57:44.758Z,2.71
2019-01-27T06:00:20.410Z,2.67
2019-01-27T06:02:48.801Z,2.63
2019-01-27T06:05:17.196Z,2.39
2019-01-27T06:07:45.652Z,2.58
2019-01-27T06:10:14.831Z,2.70
2019-01-27T06:12:43.151Z,2.67
2019-01-27T06:15:14.697Z,2.43
2019-01-27T06:17:43.345Z,2.46
2019-01-27T06:20:14.100Z,2.64
2019-01-27T06:22:42.695Z,2.60
2019-01-27T06:25:13.796Z,2.63
2019-01-27T06:27:42.178Z,2.68
2019-01-27T06:30:13.527Z,2.59
2019-01-27T06:32:43.651Z,2.53
2019-01-27T06:35:12.063Z,2.67
2019-01-27T06:37:40.451Z,2.72
2019-01-27T06:40:09.125Z,2.59
2019-01-27T06:42:37.452Z,2.63
2019-01-27T06:45:06.834Z,2.53
2019-01-27T06:47:35.149Z,2.55
2019-01-27T06:50:05.485Z,2.56
2019-01-27T06:52:33.807Z,3.14
2019-01-27T06:55:02.143Z,2.88
2019-01-27T06:57:30.458Z,2.90
2019-01-27T07:00:00.784Z,2.83
2019-01-27T07:02:30.812Z,2.82
2019-01-27T07:05:01.128Z,2.61
2019-01-27T07:07:36.879Z,2.61
2019-01-27T07:10:09.625Z,2.71
2019-01-27T07:12:39.899Z,2.62
2019-01-27T07:15:18.235Z,2.55
2019-01-27T07:18:00.440Z,2.72
2019-01-27T07:20:30.391Z,2.88
2019-01-27T07:23:03.358Z,3.02
2019-01-27T07:25:33.307Z,3.00
2019-01-27T07:28:09.169Z,3.06
2019-01-27T07:30:45.475Z,3.21
2019-01-27T07:33:15.437Z,4.29
2019-01-27T07:35:45.416Z,3.29
2019-01-27T07:38:18.439Z,3.57
2019-01-27T07:40:57.127Z,3.75
2019-01-27T07:43:35.928Z,3.50
2019-01-27T07:46:11.570Z,3.45
2019-01-27T07:48:41.528Z,3.30
2019-01-27T07:51:11.625Z,3.15
2019-01-27T07:53:50.365Z,3.62
2019-01-27T07:56:22.861Z,3.62
2019-01-27T07:58:55.520Z,3.80
2019-01-27T08:01:25.551Z,3.72
2019-01-27T08:04:12.358Z,3.67
2019-01-27T08:06:45.312Z,4.58
2019-01-27T08:09:15.636Z,3.92
2019-01-27T08:11:49.073Z,3.89
2019-01-27T08:14:33.853Z,3.92
2019-01-27T08:17:09.543Z,3.93
2019-01-27T08:19:48.247Z,3.99
2019-01-27T08:22:20.927Z,4.60
2019-01-27T08:25:02.730Z,5.06
2019-01-27T08:27:44.359Z,4.88
2019-01-27T08:30:19.649Z,4.46
2019-01-27T08:32:55.558Z,4.88
2019-01-27T08:35:31.348Z,4.91
2019-01-27T08:38:06.871Z,4.79
2019-01-27T08:40:37.229Z,4.93
2019-01-27T08:43:07.212Z,4.87
2019-01-27T08:45:42.869Z,5.34
2019-01-27T08:48:11.205Z,5.74
2019-01-27T08:50:39.865Z,5.80
2019-01-27T08:53:08.270Z,5.84
2019-01-27T08:55:37.039Z,6.09
2019-01-27T08:58:05.791Z,6.15
2019-01-27T09:00:35.100Z,6.65
2019-01-27T09:03:13.940Z,6.43
2019-01-27T09:05:46.731Z,6.43
2019-01-27T09:08:34.729Z,6.26
2019-01-27T09:11:07.383Z,6.15
2019-01-27T09:13:46.710Z,6.80
2019-01-27T09:16:32.775Z,6.72
2019-01-27T09:19:05.552Z,6.56
2019-01-27T09:21:44.699Z,6.57
2019-01-27T09:24:17.323Z,6.70
2019-01-27T09:26:47.358Z,6.30
2019-01-27T09:29:19.748Z,6.20
2019-01-27T09:32:05.810Z,6.10
2019-01-27T09:34:44.940Z,6.18
2019-01-27T09:37:14.893Z,6.29
2019-01-27T09:39:44.897Z,6.18
2019-01-27T09:42:20.571Z,6.57
2019-01-27T09:45:02.675Z,6.52
2019-01-27T09:47:35.067Z,6.39
2019-01-27T09:50:06.465Z,6.70
2019-01-27T09:52:36.507Z,6.43
2019-01-27T09:55:15.867Z,6.42
2019-01-27T09:57:46.253Z,6.36
2019-01-27T10:00:22.098Z,6.57
2019-01-27T10:03:04.025Z,6.84
2019-01-27T10:05:49.980Z,7.36
2019-01-27T10:08:19.968Z,7.31
2019-01-27T10:11:08.688Z,6.63
2019-01-27T10:13:38.731Z,6.87
2019-01-27T10:16:23.405Z,6.81
2019-01-27T10:19:05.244Z,7.07
2019-01-27T10:21:40.683Z,6.82
2019-01-27T10:24:10.733Z,6.75
2019-01-27T10:26:40.684Z,6.59
2019-01-27T10:29:10.971Z,6.68
2019-01-27T10:31:40.951Z,6.35
2019-01-27T10:34:19.838Z,6.49
2019-01-27T10:36:52.991Z,6.41
2019-01-27T10:39:23.247Z,6.00
2019-01-27T10:41:55.669Z,6.91
2019-01-27T10:44:25.629Z,6.63
2019-01-27T10:46:55.688Z,6.48
2019-01-27T10:49:40.665Z,6.31
2019-01-27T10:52:28.907Z,7.41
2019-01-27T10:55:10.796Z,7.70
2019-01-27T10:57:42.453Z,7.45
2019-01-27T11:00:27.908Z,7.03
2019-01-27T11:02:57.886Z,6.41
2019-01-27T11:05:27.915Z,6.86
2019-01-27T11:08:00.319Z,6.87
2019-01-27T11:10:42.292Z,6.53
2019-01-27T11:13:15.014Z,7.78
2019-01-27T11:16:01.504Z,6.69
2019-01-27T11:21:44.873Z,7.19
2019-01-27T11:24:23.889Z,6.81
2019-01-27T11:27:02.880Z,7.37
2019-01-27T11:29:44.592Z,7.80
2019-01-27T11:32:30.328Z,8.23
2019-01-27T11:35:03.916Z,8.47
2019-01-27T11:37:45.933Z,7.41
2019-01-27T11:40:18.893Z,7.59
2019-01-27T11:42:54.599Z,7.40
2019-01-27T11:45:24.622Z,7.90
2019-01-27T11:47:54.663Z,8.63
2019-01-27T11:50:24.944Z,9.08
2019-01-27T11:52:54.849Z,9.97
2019-01-27T11:55:23.245Z,10.19
2019-01-27T11:57:51.628Z,10.34
2019-01-27T12:00:21.664Z,10.18
2019-01-27T12:02:49.997Z,10.44
2019-01-27T12:05:18.337Z,12.74
2019-01-27T12:07:46.660Z,10.37
2019-01-27T12:10:16.534Z,10.82
2019-01-27T12:12:44.842Z,10.88
2019-01-27T12:15:18.474Z,12.72
2019-01-27T12:17:46.860Z,11.00
2019-01-27T12:20:15.354Z,11.32
2019-01-27T12:22:43.737Z,11.39
2019-01-27T12:25:16.997Z,12.10
2019-01-27T12:27:45.315Z,10.63
2019-01-27T12:30:16.938Z,9.94
2019-01-27T12:32:45.545Z,10.29
2019-01-27T12:35:14.324Z,10.36
2019-01-27T12:37:43.026Z,9.99
2019-01-27T12:40:15.206Z,10.64
2019-01-27T12:42:43.902Z,9.38
2019-01-27T12:45:14.770Z,9.32
2019-01-27T12:47:43.524Z,8.73
2019-01-27T12:50:14.281Z,7.92
2019-01-27T12:52:43.047Z,7.77
2019-01-27T12:55:13.530Z,8.66
2019-01-27T12:57:42.183Z,8.73
2019-01-27T13:00:16.395Z,8.94
2019-01-27T13:02:44.786Z,8.52
2019-01-27T13:05:13.400Z,8.92
2019-01-27T13:07:41.796Z,8.22
2019-01-27T13:10:15.808Z,8.76
2019-01-27T13:12:44.469Z,8.10
2019-01-27T13:15:15.946Z,9.03
2019-01-27T13:17:44.785Z,8.72
2019-01-27T13:20:14.530Z,8.43
2019-01-27T13:22:43.192Z,8.80
2019-01-27T13:25:16.489Z,8.93
2019-01-27T13:27:45.249Z,9.09
2019-01-27T13:30:19.091Z,9.49
2019-01-27T13:32:47.736Z,9.70
2019-01-27T13:35:16.402Z,9.37
2019-01-27T13:37:44.984Z,9.23
2019-01-27T13:40:23.674Z,8.54
2019-01-27T13:42:52.066Z,8.34
2019-01-27T13:45:31.184Z,8.60
2019-01-27T13:47:59.575Z,8.40
2019-01-27T13:50:28.080Z,7.71
2019-01-27T13:52:56.938Z,8.26
